LiveATC.Net - Listen to live air traffic control over the Internet!


ICAO: ENVA  IATA: TRD   Airport: Vaernes Airport
City: Trondheim
Country: Norway   Continent: Europe
ENVA METAR Weather: ENVA 040250Z AUTO 10005KT 9999 BKN140/// 12/10 Q1002 RMK WIND 670FT 13010KT
ENVA Flight Activity (FlightAware)

ENVA Gnd/Twr/App
Feed Status: DOWN
Last heard on: 2020-06-01 12:56:05 (2 days 14 hours 9 minutes ago)
Archive Access: ENVA Gnd/Twr/App
FacilityFrequency
Trondheim Approach118.600
Trondheim Ground121.600
Trondheim Tower119.400

NOTICE

Unauthorized use prohibited. See LiveATC.net Terms of Service


Airport/ARTCC Code
Frequency Search
(e.g., 124.400, 128.75)
Site-wide search
 


Browse Feeds
Top 50 Feeds
Coverage Map
Bad Weather Areas

LiveATC FAQ
Offer LiveATC feed
Contact LiveATC.net
Press Inquiries

LiveATC on iPhone
LiveATC on Android

Windows Phone
Windows 8/10

LiveATC Mobile
(Mobile browser)

ATC Audio Archives
Interesting Recordings

LiveATC Forums


Home Page
About LiveATC.net
Make a Donation
Terms of Use
Privacy Policy

Canadian Air Freqs

AIRMETs/SIGMETs

FAA Airport Status
Nat'l Airspace Status
Arrival Demand Charts


Server Software By:
Icecast.org
Liquidsoap